createdAt,value
2018-04-11T00:01:56.265Z,95.40
2018-04-11T00:04:24.973Z,95.90
2018-04-11T00:06:54.432Z,96.40
2018-04-11T00:09:23.141Z,96.40
2018-04-11T00:11:51.838Z,96.20
2018-04-11T00:14:21.314Z,96.50
2018-04-11T00:16:50.025Z,96.50
2018-04-11T00:19:18.733Z,97.30
2018-04-11T00:21:48.200Z,97.70
2018-04-11T00:24:16.902Z,97.70
2018-04-11T00:26:45.614Z,97.90
2018-04-11T00:29:14.326Z,97.50
2018-04-11T00:31:43.037Z,97.70
2018-04-11T00:34:11.518Z,98.20
2018-04-11T00:36:40.218Z,97.90
2018-04-11T00:39:08.924Z,98.20
2018-04-11T00:41:38.397Z,99.00
2018-04-11T00:44:07.118Z,99.10
2018-04-11T00:46:36.590Z,99.10
2018-04-11T00:49:05.295Z,99.10
2018-04-11T00:51:33.990Z,99.40
2018-04-11T00:54:02.702Z,99.30
2018-04-11T00:56:32.178Z,99.20
2018-04-11T00:59:00.892Z,99.20
2018-04-11T01:01:30.369Z,99.90
2018-04-11T01:03:59.081Z,99.90
2018-04-11T01:06:28.553Z,99.60
2018-04-11T01:08:57.248Z,99.60
2018-04-11T01:11:25.980Z,99.70
2018-04-11T01:13:54.681Z,99.90
2018-04-11T01:16:23.046Z,99.90
2018-04-11T01:18:51.760Z,99.90
2018-04-11T01:21:20.470Z,99.90
2018-04-11T01:23:49.165Z,99.90
2018-04-11T01:26:17.884Z,99.90
2018-04-11T01:28:46.611Z,99.90
2018-04-11T01:31:15.317Z,99.90
2018-04-11T01:33:44.029Z,99.90
2018-04-11T01:36:13.510Z,99.90
2018-04-11T01:38:42.222Z,99.90
2018-04-11T01:41:11.697Z,99.90
2018-04-11T01:43:40.406Z,99.90
2018-04-11T01:46:09.122Z,99.90
2018-04-11T01:48:37.605Z,99.90
2018-04-11T01:51:07.085Z,99.90
2018-04-11T01:53:36.573Z,99.90
2018-04-11T01:56:05.270Z,99.90
2018-04-11T01:58:33.980Z,99.90
2018-04-11T02:01:02.705Z,99.90
2018-04-11T02:03:31.418Z,99.90
2018-04-11T02:06:00.122Z,99.90
2018-04-11T02:08:28.836Z,99.90
2018-04-11T02:10:58.081Z,99.90
2018-04-11T02:13:26.806Z,99.90
2018-04-11T02:15:55.282Z,99.90
2018-04-11T02:18:23.756Z,99.90
2018-04-11T02:20:52.466Z,99.90
2018-04-11T02:23:21.949Z,99.90
2018-04-11T02:25:50.665Z,99.90
2018-04-11T02:28:20.141Z,99.90
2018-04-11T02:30:48.867Z,99.90
2018-04-11T02:33:17.577Z,99.90
2018-04-11T02:35:46.298Z,99.90
2018-04-11T02:38:15.013Z,99.90
2018-04-11T02:40:44.486Z,99.90
2018-04-11T02:43:13.203Z,99.90
2018-04-11T02:45:42.682Z,99.90
2018-04-11T02:48:11.389Z,99.90
2018-04-11T02:50:40.864Z,99.90
2018-04-11T02:53:09.583Z,99.90
2018-04-11T02:55:38.373Z,99.90
2018-04-11T02:58:07.167Z,99.90
2018-04-11T03:00:36.739Z,99.90
2018-04-11T03:03:05.545Z,99.90
2018-04-11T03:05:34.354Z,99.90
2018-04-11T03:08:03.159Z,99.90
2018-04-11T03:10:31.961Z,99.90
2018-04-11T03:13:00.757Z,99.90
2018-04-11T03:15:29.558Z,99.90
2018-04-11T03:17:58.373Z,99.90
2018-04-11T03:20:27.195Z,99.90
2018-04-11T03:22:55.991Z,99.90
2018-04-11T03:25:24.789Z,99.90
2018-04-11T03:27:53.596Z,99.90
2018-04-11T03:30:22.398Z,99.90
2018-04-11T03:32:51.209Z,99.90
2018-04-11T03:35:20.011Z,99.90
2018-04-11T03:37:49.587Z,99.90
2018-04-11T03:40:18.394Z,99.90
2018-04-11T03:42:47.197Z,99.90
2018-04-11T03:45:15.996Z,99.90
2018-04-11T03:47:45.620Z,99.90
2018-04-11T03:50:14.430Z,99.90
2018-04-11T03:52:43.227Z,99.90
2018-04-11T03:55:12.796Z,99.90
2018-04-11T03:57:42.371Z,99.90
2018-04-11T04:00:10.846Z,99.90
2018-04-11T04:02:40.425Z,99.90
2018-04-11T04:05:09.226Z,99.90
2018-04-11T04:07:38.062Z,99.90
2018-04-11T04:10:07.026Z,99.90
2018-04-11T04:12:35.824Z,99.90
2018-04-11T04:15:15.764Z,99.90
2018-04-11T04:17:55.535Z,99.90
2018-04-11T04:20:35.525Z,99.90
2018-04-11T04:23:03.661Z,99.90
2018-04-11T04:25:31.562Z,99.90
2018-04-11T04:28:00.364Z,99.90
2018-04-11T04:30:29.238Z,99.90
2018-04-11T04:32:59.207Z,99.90
2018-04-11T04:35:28.017Z,99.90
2018-04-11T04:37:56.830Z,99.90
2018-04-11T04:40:25.645Z,99.90
2018-04-11T04:42:54.449Z,99.90
2018-04-11T04:45:23.251Z,99.90
2018-04-11T04:47:52.075Z,99.90
2018-04-11T04:50:21.659Z,99.90
2018-04-11T04:52:50.479Z,99.90
2018-04-11T04:55:20.042Z,99.90
2018-04-11T04:57:49.746Z,99.90
2018-04-11T05:00:18.711Z,99.90
2018-04-11T05:02:47.295Z,99.90
2018-04-11T05:05:16.105Z,99.90
2018-04-11T05:07:44.917Z,99.90
2018-04-11T05:10:13.722Z,99.90
2018-04-11T05:12:42.653Z,99.90
2018-04-11T05:15:11.250Z,99.90
2018-04-11T05:17:40.059Z,99.90
2018-04-11T05:20:08.642Z,99.90
2018-04-11T05:22:38.183Z,99.90
2018-04-11T05:25:06.783Z,99.90
2018-04-11T05:27:36.360Z,99.90
2018-04-11T05:30:04.835Z,99.90
2018-04-11T05:32:34.200Z,99.90
2018-04-11T05:35:03.043Z,99.90
2018-04-11T05:37:31.875Z,99.90
2018-04-11T05:40:01.548Z,99.90
2018-04-11T05:42:30.363Z,99.90
2018-04-11T05:44:59.944Z,99.90
2018-04-11T05:47:28.756Z,99.90
2018-04-11T05:49:58.354Z,99.90
2018-04-11T05:52:27.935Z,99.90
2018-04-11T05:54:56.763Z,99.90
2018-04-11T05:57:26.359Z,99.90
2018-04-11T05:59:55.181Z,99.90
2018-04-11T06:02:23.992Z,99.90
2018-04-11T06:04:52.806Z,99.90
2018-04-11T06:07:21.615Z,99.90
2018-04-11T06:09:50.431Z,99.90
2018-04-11T06:12:19.246Z,99.90
2018-04-11T06:14:48.057Z,99.90
2018-04-11T06:17:16.869Z,99.90
2018-04-11T06:19:45.694Z,99.90
2018-04-11T06:22:15.255Z,99.90
2018-04-11T06:24:44.075Z,99.90
2018-04-11T06:27:13.655Z,99.90
2018-04-11T06:29:42.465Z,99.90
2018-04-11T06:32:11.384Z,99.90
2018-04-11T06:34:40.198Z,99.90
2018-04-11T06:37:09.020Z,99.90
2018-04-11T06:39:37.853Z,99.90
2018-04-11T06:42:06.670Z,99.90
2018-04-11T06:44:35.481Z,99.90
2018-04-11T06:47:04.289Z,99.90
2018-04-11T06:49:33.102Z,99.90
2018-04-11T06:52:02.670Z,99.90
2018-04-11T06:54:31.470Z,99.90
2018-04-11T06:56:59.937Z,99.90
2018-04-11T06:59:28.760Z,99.90
2018-04-11T07:01:58.366Z,99.90
2018-04-11T07:04:27.221Z,99.90
2018-04-11T07:06:56.027Z,99.90
2018-04-11T07:09:24.855Z,99.90
2018-04-11T07:11:54.470Z,99.90
2018-04-11T07:14:23.286Z,99.90
2018-04-11T07:16:52.498Z,99.90
2018-04-11T07:19:21.309Z,99.90
2018-04-11T07:21:50.140Z,99.90
2018-04-11T07:24:18.955Z,99.90
2018-04-11T07:26:47.763Z,99.90
2018-04-11T07:29:16.569Z,99.90
2018-04-11T07:31:45.505Z,99.90
2018-04-11T07:34:14.314Z,99.90
2018-04-11T07:36:43.889Z,99.90
2018-04-11T07:39:13.467Z,99.90
2018-04-11T07:41:42.274Z,99.90
2018-04-11T07:44:11.859Z,99.90
2018-04-11T07:46:40.670Z,99.90
2018-04-11T07:49:09.475Z,99.90
2018-04-11T07:51:39.052Z,99.80
2018-04-11T07:54:07.882Z,99.80
2018-04-11T07:56:37.299Z,99.70
2018-04-11T07:59:06.097Z,99.10
2018-04-11T08:01:34.897Z,98.70
2018-04-11T08:04:03.708Z,98.30
2018-04-11T08:06:32.509Z,98.10
2018-04-11T08:09:01.316Z,97.20
2018-04-11T08:11:30.894Z,95.40
2018-04-11T08:13:59.703Z,95.30
2018-04-11T08:16:28.266Z,94.90
2018-04-11T08:18:57.062Z,94.60
2018-04-11T08:21:25.636Z,93.80
2018-04-11T08:23:53.693Z,93.10
2018-04-11T08:26:22.250Z,92.00
2018-04-11T08:28:51.030Z,91.30
2018-04-11T08:31:20.605Z,90.20
2018-04-11T08:33:49.405Z,90.10
2018-04-11T08:36:18.202Z,88.70
2018-04-11T08:38:46.998Z,86.60
2018-04-11T08:41:16.551Z,84.10
2018-04-11T08:43:45.346Z,84.00
2018-04-11T08:46:14.130Z,83.00
2018-04-11T08:48:42.934Z,80.60
2018-04-11T08:51:11.739Z,79.50
2018-04-11T08:53:40.545Z,78.60
2018-04-11T08:56:09.344Z,76.20
2018-04-11T08:58:38.927Z,70.80
2018-04-11T09:01:07.721Z,70.80
2018-04-11T09:03:36.518Z,70.30
2018-04-11T09:06:05.000Z,67.20
2018-04-11T09:08:33.560Z,65.80
2018-04-11T09:11:02.361Z,62.70
2018-04-11T09:13:31.162Z,62.20
2018-04-11T09:15:59.953Z,61.10
2018-04-11T09:18:28.741Z,61.20
2018-04-11T09:20:57.557Z,60.10
2018-04-11T09:23:27.114Z,58.80
2018-04-11T09:25:55.570Z,58.70
2018-04-11T09:28:24.361Z,59.70
2018-04-11T09:30:53.172Z,59.30
2018-04-11T09:33:21.966Z,59.20
2018-04-11T09:35:50.761Z,58.10
2018-04-11T09:38:19.554Z,58.00
2018-04-11T09:40:48.352Z,55.40
2018-04-11T09:43:17.137Z,55.40
2018-04-11T09:45:45.939Z,54.80
2018-04-11T09:48:14.729Z,53.90
2018-04-11T09:50:43.522Z,54.70
2018-04-11T09:53:12.313Z,53.70
2018-04-11T09:55:41.647Z,52.50
2018-04-11T09:58:10.437Z,52.50
2018-04-11T10:00:39.018Z,51.40
2018-04-11T10:03:08.603Z,51.20
2018-04-11T10:05:37.839Z,52.70
2018-04-11T10:08:06.626Z,52.50
2018-04-11T10:10:35.423Z,53.20
2018-04-11T10:13:04.266Z,54.00
2018-04-11T10:15:33.058Z,53.70
2018-04-11T10:18:01.847Z,53.60
2018-04-11T10:20:30.641Z,54.20
2018-04-11T10:22:59.974Z,54.10
2018-04-11T10:25:28.794Z,54.10
2018-04-11T10:27:57.591Z,54.20
2018-04-11T10:30:26.394Z,54.30
2018-04-11T10:32:55.179Z,54.80
2018-04-11T10:35:23.965Z,54.30
2018-04-11T10:37:52.753Z,54.20
2018-04-11T10:40:21.543Z,54.50
2018-04-11T10:42:51.120Z,53.90
2018-04-11T10:45:19.591Z,53.80
2018-04-11T10:47:49.383Z,53.50
2018-04-11T10:50:18.947Z,54.60
2018-04-11T10:52:47.779Z,54.60
2018-04-11T10:55:16.737Z,53.90
2018-04-11T10:57:45.571Z,53.30
2018-04-11T11:00:14.378Z,53.00
2018-04-11T11:02:43.198Z,52.50
2018-04-11T11:05:11.998Z,51.50
2018-04-11T11:07:40.789Z,51.20
2018-04-11T11:10:09.354Z,50.90
2018-04-11T11:12:38.003Z,49.90
2018-04-11T11:15:06.798Z,49.90
2018-04-11T11:17:35.601Z,49.40
2018-04-11T11:20:04.462Z,48.20
2018-04-11T11:22:33.798Z,47.50
2018-04-11T11:25:02.361Z,47.50
2018-04-11T11:27:31.201Z,47.00
2018-04-11T11:30:00.010Z,46.30
2018-04-11T11:32:29.350Z,46.00
2018-04-11T11:34:57.917Z,45.80
2018-04-11T11:37:26.149Z,44.20
2018-04-11T11:39:54.732Z,43.60
2018-04-11T11:42:23.306Z,44.20
2018-04-11T11:44:52.123Z,44.50
2018-04-11T11:47:20.932Z,44.20
2018-04-11T11:49:49.465Z,44.10
2018-04-11T11:52:18.297Z,44.50
2018-04-11T11:54:47.094Z,44.90
2018-04-11T11:57:16.668Z,45.50
2018-04-11T11:59:47.118Z,45.50
2018-04-11T12:02:15.599Z,45.40
2018-04-11T12:04:44.170Z,44.30
2018-04-11T12:07:12.998Z,44.90
2018-04-11T12:09:42.558Z,45.00
2018-04-11T12:12:11.360Z,45.00
2018-04-11T12:14:40.152Z,45.00
2018-04-11T12:17:08.950Z,44.30
2018-04-11T12:19:37.750Z,44.10
2018-04-11T12:22:07.308Z,45.30
2018-04-11T12:24:36.102Z,44.70
2018-04-11T12:27:04.898Z,44.80
2018-04-11T12:29:33.723Z,44.40
2018-04-11T12:32:03.322Z,45.00
2018-04-11T12:34:32.285Z,44.30
2018-04-11T12:37:01.083Z,44.20
2018-04-11T12:39:29.887Z,44.10
2018-04-11T12:41:58.711Z,43.90
2018-04-11T12:44:28.278Z,44.40
2018-04-11T12:46:57.620Z,44.30
2018-04-11T12:49:26.437Z,44.60
2018-04-11T12:51:55.256Z,44.80
2018-04-11T12:54:23.833Z,44.90
2018-04-11T12:56:52.625Z,44.80
2018-04-11T12:59:21.465Z,44.70
2018-04-11T13:01:51.033Z,45.10
2018-04-11T13:04:19.497Z,45.10
2018-04-11T13:06:48.851Z,44.90
2018-04-11T13:09:18.398Z,44.20
2018-04-11T13:11:47.190Z,44.20
2018-04-11T13:14:16.737Z,44.50
2018-04-11T13:16:45.549Z,45.40
2018-04-11T13:19:14.882Z,45.70
2018-04-11T13:21:43.489Z,45.60
2018-04-11T13:24:12.047Z,45.60
2018-04-11T13:26:40.834Z,45.80
2018-04-11T13:29:09.629Z,45.50
2018-04-11T13:31:37.518Z,45.10
2018-04-11T13:34:05.989Z,44.70
2018-04-11T13:36:34.535Z,44.40
2018-04-11T13:39:04.096Z,44.30
2018-04-11T13:41:33.401Z,45.10
2018-04-11T13:44:01.710Z,45.10
2018-04-11T13:46:30.205Z,45.10
2018-04-11T13:48:59.537Z,45.10
2018-04-11T13:51:28.078Z,45.10
2018-04-11T13:53:56.383Z,45.20
2018-04-11T13:56:24.950Z,45.50
2018-04-11T13:58:53.947Z,44.90
2018-04-11T14:01:23.282Z,44.90
2018-04-11T14:03:52.116Z,44.90
2018-04-11T14:06:21.555Z,45.10
2018-04-11T14:08:49.853Z,45.60
2018-04-11T14:11:18.321Z,45.50
2018-04-11T14:13:46.894Z,45.10
2018-04-11T14:16:15.467Z,45.30
2018-04-11T14:18:44.275Z,45.40
2018-04-11T14:21:13.081Z,45.20
2018-04-11T14:23:41.900Z,45.20
2018-04-11T14:26:10.464Z,45.10
2018-04-11T14:28:39.036Z,44.50
2018-04-11T14:31:07.859Z,44.50
2018-04-11T14:33:36.663Z,44.20
2018-04-11T14:36:05.231Z,44.60
2018-04-11T14:38:34.031Z,45.00
2018-04-11T14:41:02.597Z,45.30
2018-04-11T14:43:31.394Z,45.30
2018-04-11T14:46:00.174Z,45.20
2018-04-11T14:48:28.755Z,44.90
2018-04-11T14:50:57.561Z,44.60
2018-04-11T14:53:26.369Z,44.60
2018-04-11T14:55:55.166Z,43.70
2018-04-11T14:58:24.738Z,43.70
2018-04-11T15:00:53.908Z,43.70
2018-04-11T15:03:22.714Z,43.90
2018-04-11T15:05:51.736Z,44.00
2018-04-11T15:08:20.765Z,44.30
2018-04-11T15:10:50.338Z,43.90
2018-04-11T15:13:19.144Z,43.90
2018-04-11T15:15:48.715Z,44.30
2018-04-11T15:18:17.523Z,44.20
2018-04-11T15:20:46.352Z,44.30
2018-04-11T15:23:15.962Z,44.60
2018-04-11T15:25:45.641Z,44.70
2018-04-11T15:28:15.241Z,45.50
2018-04-11T15:30:44.042Z,45.40
2018-04-11T15:33:13.625Z,46.20
2018-04-11T15:35:42.415Z,46.20
2018-04-11T15:38:11.230Z,46.50
2018-04-11T15:40:40.068Z,46.60
2018-04-11T15:43:08.870Z,47.40
2018-04-11T15:45:38.278Z,47.10
2018-04-11T15:48:07.074Z,47.00
2018-04-11T15:50:35.873Z,46.90
2018-04-11T15:53:04.677Z,46.80
2018-04-11T15:55:33.493Z,47.00
2018-04-11T15:58:03.062Z,47.70
2018-04-11T16:00:31.630Z,47.70
2018-04-11T16:03:00.426Z,47.50
2018-04-11T16:05:29.255Z,47.70
2018-04-11T16:07:58.055Z,48.00
2018-04-11T16:10:27.670Z,48.40
2018-04-11T16:12:56.490Z,48.40
2018-04-11T16:15:25.315Z,48.30
2018-04-11T16:17:54.175Z,48.40
2018-04-11T16:20:22.998Z,48.60
2018-04-11T16:22:51.801Z,48.40
2018-04-11T16:25:21.380Z,48.70
2018-04-11T16:27:50.190Z,48.70
2018-04-11T16:30:20.620Z,49.10
2018-04-11T16:32:49.423Z,49.00
2018-04-11T16:35:19.549Z,49.30
2018-04-11T16:37:49.125Z,49.60
2018-04-11T16:40:17.920Z,49.50
2018-04-11T16:42:46.731Z,50.10
2018-04-11T16:45:16.305Z,50.80
2018-04-11T16:47:45.205Z,50.80
2018-04-11T16:50:14.001Z,51.20
2018-04-11T16:52:42.580Z,51.30
2018-04-11T16:55:12.262Z,51.80
2018-04-11T16:57:41.091Z,52.10
2018-04-11T17:00:10.336Z,52.80
2018-04-11T17:02:39.135Z,52.10
2018-04-11T17:05:07.930Z,52.50
2018-04-11T17:07:36.731Z,52.70
2018-04-11T17:10:05.314Z,53.00
2018-04-11T17:12:34.145Z,53.10
2018-04-11T17:15:03.346Z,53.50
2018-04-11T17:17:32.671Z,54.20
2018-04-11T17:20:01.259Z,54.20
2018-04-11T17:22:41.022Z,54.50
2018-04-11T17:25:21.656Z,54.70
2018-04-11T17:28:02.007Z,55.60
2018-04-11T17:30:42.715Z,55.60
2018-04-11T17:33:11.533Z,55.60
2018-04-11T17:35:41.274Z,56.10
2018-04-11T17:38:10.859Z,56.70
2018-04-11T17:40:40.390Z,56.70
2018-04-11T17:43:11.005Z,57.10
2018-04-11T17:45:39.830Z,57.00
2018-04-11T17:48:08.714Z,57.30
2018-04-11T17:50:38.115Z,57.70
2018-04-11T17:53:07.723Z,58.50
2018-04-11T17:55:36.531Z,58.40
2018-04-11T17:58:05.344Z,58.70
2018-04-11T18:00:34.157Z,59.00
2018-04-11T18:03:03.009Z,59.20
2018-04-11T18:05:31.822Z,59.70
2018-04-11T18:08:00.640Z,60.10
2018-04-11T18:10:29.454Z,60.20
2018-04-11T18:12:59.198Z,60.40
2018-04-11T18:15:28.063Z,60.80
2018-04-11T18:17:57.786Z,61.50
2018-04-11T18:20:26.608Z,61.90
2018-04-11T18:22:55.817Z,62.40
2018-04-11T18:25:24.617Z,62.70
2018-04-11T18:27:53.752Z,63.00
2018-04-11T18:30:23.330Z,63.70
2018-04-11T18:32:51.904Z,63.60
2018-04-11T18:35:20.711Z,64.10
2018-04-11T18:37:49.522Z,64.40
2018-04-11T18:40:18.340Z,65.30
2018-04-11T18:42:46.832Z,64.80
2018-04-11T18:45:15.647Z,65.40
2018-04-11T18:47:44.481Z,65.80
2018-04-11T18:50:13.310Z,66.10
2018-04-11T18:52:42.170Z,66.50
2018-04-11T18:55:10.760Z,67.10
2018-04-11T18:57:39.582Z,67.90
2018-04-11T19:00:08.116Z,68.00
2018-04-11T19:02:37.134Z,68.50
2018-04-11T19:05:05.942Z,68.80
2018-04-11T19:07:34.755Z,69.40
2018-04-11T19:10:03.571Z,70.10
2018-04-11T19:12:33.143Z,70.60
2018-04-11T19:15:01.955Z,70.60
2018-04-11T19:17:30.968Z,70.80
2018-04-11T19:20:01.344Z,71.30
2018-04-11T19:22:30.159Z,71.10
2018-04-11T19:24:58.980Z,71.10
2018-04-11T19:27:28.563Z,72.40
2018-04-11T19:29:57.145Z,72.40
2018-04-11T19:32:25.953Z,73.00
2018-04-11T19:34:55.569Z,73.30
2018-04-11T19:37:24.382Z,73.30
2018-04-11T19:39:53.460Z,73.80
2018-04-11T19:42:22.275Z,74.50
2018-04-11T19:44:50.861Z,74.80
2018-04-11T19:47:19.454Z,75.50
2018-04-11T19:49:48.102Z,76.40
2018-04-11T19:52:16.993Z,75.90
2018-04-11T19:54:47.242Z,77.30
2018-04-11T19:57:16.038Z,77.30
2018-04-11T19:59:44.607Z,77.00
2018-04-11T20:02:13.402Z,77.10
2018-04-11T20:04:42.207Z,77.30
2018-04-11T20:07:11.459Z,78.60
2018-04-11T20:09:40.772Z,79.60
2018-04-11T20:12:10.383Z,79.50
2018-04-11T20:14:39.717Z,80.80
2018-04-11T20:17:08.303Z,80.70
2018-04-11T20:19:37.094Z,81.90
2018-04-11T20:22:05.578Z,82.60
2018-04-11T20:24:34.143Z,84.00
2018-04-11T20:27:03.192Z,83.90
2018-04-11T20:29:32.008Z,84.00
2018-04-11T20:32:00.824Z,84.60
2018-04-11T20:34:29.646Z,84.90
2018-04-11T20:36:58.443Z,84.80
2018-04-11T20:39:27.252Z,85.00
2018-04-11T20:41:56.845Z,84.60
2018-04-11T20:44:25.421Z,84.70
2018-04-11T20:46:54.229Z,84.70
2018-04-11T20:49:23.810Z,84.60
2018-04-11T20:51:53.330Z,84.60
2018-04-11T20:54:22.564Z,84.50
2018-04-11T20:56:52.136Z,84.30
2018-04-11T20:59:20.597Z,84.40
2018-04-11T21:01:49.412Z,84.90
2018-04-11T21:04:18.235Z,84.90
2018-04-11T21:06:47.911Z,85.40
2018-04-11T21:09:16.727Z,85.50
2018-04-11T21:11:46.303Z,85.50
2018-04-11T21:14:15.130Z,85.50
2018-04-11T21:16:44.708Z,86.00
2018-04-11T21:19:13.196Z,86.10
2018-04-11T21:21:42.772Z,87.70
2018-04-11T21:24:11.254Z,87.00
2018-04-11T21:26:40.065Z,87.90
2018-04-11T21:29:08.883Z,88.70
2018-04-11T21:31:38.458Z,89.50
2018-04-11T21:34:07.268Z,89.50
2018-04-11T21:36:36.858Z,90.30
2018-04-11T21:39:04.989Z,90.30
2018-04-11T21:41:33.811Z,90.40
2018-04-11T21:44:02.628Z,90.60
2018-04-11T21:46:32.238Z,90.90
2018-04-11T21:49:01.827Z,91.20
2018-04-11T21:51:30.839Z,91.30
2018-04-11T21:54:00.423Z,91.60
2018-04-11T21:56:29.251Z,91.60
2018-04-11T21:58:58.831Z,91.80
2018-04-11T22:01:27.630Z,91.70
2018-04-11T22:03:56.443Z,91.90
2018-04-11T22:06:26.015Z,92.50
2018-04-11T22:08:54.820Z,92.50
2018-04-11T22:11:23.639Z,92.70
2018-04-11T22:13:52.654Z,93.30
2018-04-11T22:16:21.474Z,93.20
2018-04-11T23:02:32.118Z,93.80
2018-04-11T23:05:00.927Z,97.20
2018-04-11T23:07:29.533Z,98.10
2018-04-11T23:09:58.111Z,98.80
2018-04-11T23:12:26.698Z,99.10
2018-04-11T23:14:55.271Z,99.20
2018-04-11T23:17:23.862Z,99.10
2018-04-11T23:19:52.436Z,99.40
2018-04-11T23:22:21.247Z,99.70
2018-04-11T23:24:50.063Z,99.70
2018-04-11T23:27:19.642Z,99.90
2018-04-11T23:29:48.455Z,99.90
2018-04-11T23:32:18.032Z,99.90
2018-04-11T23:34:46.611Z,99.90
2018-04-11T23:37:15.426Z,99.90
2018-04-11T23:39:44.248Z,99.90
2018-04-11T23:42:13.056Z,99.90
2018-04-11T23:44:41.868Z,99.90
2018-04-11T23:47:10.684Z,99.90
2018-04-11T23:49:39.491Z,99.90
2018-04-11T23:52:09.054Z,99.90
2018-04-11T23:54:37.882Z,99.90
2018-04-11T23:57:07.459Z,99.90
2018-04-11T23:59:36.270Z,99.90
